sensor_id;sensor_type;location;lat;lon;timestamp;pressure;altitude;pressure_sealevel;temperature;humidity
50380;BME280;37474;59.468;18.040;2022-10-16T00:00:12;100445.84;;;12.04;100.00
50380;BME280;37474;59.468;18.040;2022-10-16T00:02:40;100435.78;;;11.85;100.00
50380;BME280;37474;59.468;18.040;2022-10-16T00:05:08;100446.16;;;11.85;100.00
50380;BME280;37474;59.468;18.040;2022-10-16T00:07:39;100436.22;;;12.06;100.00
50380;BME280;37474;59.468;18.040;2022-10-16T00:10:07;100434.63;;;12.03;100.00
50380;BME280;37474;59.468;18.040;2022-10-16T00:12:37;100395.66;;;11.75;100.00
50380;BME280;37474;59.468;18.040;2022-10-16T00:15:08;100410.97;;;11.94;100.00
50380;BME280;37474;59.468;18.040;2022-10-16T00:17:36;100403.00;;;11.82;100.00
50380;BME280;37474;59.468;18.040;2022-10-16T00:20:05;100431.31;;;11.87;100.00
50380;BME280;37474;59.468;18.040;2022-10-16T00:22:36;100388.19;;;11.56;100.00
50380;BME280;37474;59.468;18.040;2022-10-16T00:25:06;100402.38;;;11.50;100.00
50380;BME280;37474;59.468;18.040;2022-10-16T00:27:35;100424.34;;;11.73;100.00
50380;BME280;37474;59.468;18.040;2022-10-16T00:30:06;100428.59;;;11.74;100.00
50380;BME280;37474;59.468;18.040;2022-10-16T00:32:36;100404.13;;;11.64;100.00
50380;BME280;37474;59.468;18.040;2022-10-16T00:35:05;100406.88;;;11.75;100.00
50380;BME280;37474;59.468;18.040;2022-10-16T00:37:36;100416.81;;;11.69;100.00
50380;BME280;37474;59.468;18.040;2022-10-16T00:40:07;100409.97;;;11.68;100.00
50380;BME280;37474;59.468;18.040;2022-10-16T00:42:35;100391.50;;;11.72;100.00
50380;BME280;37474;59.468;18.040;2022-10-16T00:45:06;100421.19;;;11.82;100.00
50380;BME280;37474;59.468;18.040;2022-10-16T00:47:37;100423.13;;;11.79;100.00
50380;BME280;37474;59.468;18.040;2022-10-16T00:50:08;100397.34;;;11.61;100.00
50380;BME280;37474;59.468;18.040;2022-10-16T00:52:44;100390.31;;;11.49;100.00
50380;BME280;37474;59.468;18.040;2022-10-16T00:55:16;100401.59;;;11.48;100.00
50380;BME280;37474;59.468;18.040;2022-10-16T00:57:47;100414.84;;;11.44;100.00
50380;BME280;37474;59.468;18.040;2022-10-16T01:00:18;100387.41;;;11.25;100.00
50380;BME280;37474;59.468;18.040;2022-10-16T01:02:52;100411.53;;;11.27;100.00
50380;BME280;37474;59.468;18.040;2022-10-16T01:05:21;100377.13;;;11.09;100.00
50380;BME280;37474;59.468;18.040;2022-10-16T01:07:56;100393.19;;;11.16;100.00
50380;BME280;37474;59.468;18.040;2022-10-16T01:10:34;100408.94;;;11.42;100.00
50380;BME280;37474;59.468;18.040;2022-10-16T01:13:08;100417.38;;;11.45;100.00
50380;BME280;37474;59.468;18.040;2022-10-16T01:15:41;100404.03;;;11.51;100.00
50380;BME280;37474;59.468;18.040;2022-10-16T01:18:16;100403.56;;;11.45;100.00
50380;BME280;37474;59.468;18.040;2022-10-16T01:20:51;100412.53;;;11.25;100.00
50380;BME280;37474;59.468;18.040;2022-10-16T01:23:36;100408.94;;;11.27;100.00
50380;BME280;37474;59.468;18.040;2022-10-16T01:26:15;100408.38;;;11.22;100.00
50380;BME280;37474;59.468;18.040;2022-10-16T01:28:55;100395.41;;;11.22;100.00
50380;BME280;37474;59.468;18.040;2022-10-16T01:31:27;100365.63;;;10.99;100.00
50380;BME280;37474;59.468;18.040;2022-10-16T01:34:02;100409.75;;;11.14;100.00
50380;BME280;37474;59.468;18.040;2022-10-16T01:36:35;100402.88;;;11.13;100.00
50380;BME280;37474;59.468;18.040;2022-10-16T01:39:10;100387.13;;;11.01;100.00
50380;BME280;37474;59.468;18.040;2022-10-16T01:41:41;100422.91;;;11.25;100.00
50380;BME280;37474;59.468;18.040;2022-10-16T01:44:18;100432.66;;;11.35;100.00
50380;BME280;37474;59.468;18.040;2022-10-16T01:46:50;100429.53;;;11.45;100.00
50380;BME280;37474;59.468;18.040;2022-10-16T01:49:23;100422.38;;;11.34;100.00
50380;BME280;37474;59.468;18.040;2022-10-16T01:51:56;100411.53;;;11.27;100.00
50380;BME280;37474;59.468;18.040;2022-10-16T01:54:30;100408.28;;;11.24;100.00
50380;BME280;37474;59.468;18.040;2022-10-16T01:57:01;100415.59;;;11.31;100.00
50380;BME280;37474;59.468;18.040;2022-10-16T01:59:39;100398.38;;;11.30;100.00
50380;BME280;37474;59.468;18.040;2022-10-16T02:02:09;100427.84;;;11.44;100.00
50380;BME280;37474;59.468;18.040;2022-10-16T02:04:44;100428.88;;;11.41;100.00
50380;BME280;37474;59.468;18.040;2022-10-16T02:07:13;100422.94;;;11.39;100.00
50380;BME280;37474;59.468;18.040;2022-10-16T02:09:43;100409.69;;;11.58;100.00
50380;BME280;37474;59.468;18.040;2022-10-16T02:12:18;100403.75;;;11.42;100.00
50380;BME280;37474;59.468;18.040;2022-10-16T02:14:54;100405.78;;;11.51;100.00
50380;BME280;37474;59.468;18.040;2022-10-16T02:17:22;100399.28;;;11.29;100.00
50380;BME280;37474;59.468;18.040;2022-10-16T02:19:54;100401.06;;;11.43;100.00
50380;BME280;37474;59.468;18.040;2022-10-16T02:22:28;100401.81;;;11.45;100.00
50380;BME280;37474;59.468;18.040;2022-10-16T02:25:02;100392.53;;;11.55;100.00
50380;BME280;37474;59.468;18.040;2022-10-16T02:27:39;100394.84;;;11.46;100.00
50380;BME280;37474;59.468;18.040;2022-10-16T02:30:16;100346.00;;;11.24;100.00
50380;BME280;37474;59.468;18.040;2022-10-16T02:32:48;100394.97;;;11.44;100.00
50380;BME280;37474;59.468;18.040;2022-10-16T02:35:21;100396.44;;;11.34;100.00
50380;BME280;37474;59.468;18.040;2022-10-16T02:37:52;100404.47;;;11.44;100.00
50380;BME280;37474;59.468;18.040;2022-10-16T02:40:23;100399.84;;;11.49;100.00
50380;BME280;37474;59.468;18.040;2022-10-16T02:42:53;100361.00;;;11.19;100.00
50380;BME280;37474;59.468;18.040;2022-10-16T02:45:27;100405.41;;;11.43;100.00
50380;BME280;37474;59.468;18.040;2022-10-16T02:47:55;100391.69;;;11.41;100.00
50380;BME280;37474;59.468;18.040;2022-10-16T02:50:25;100388.25;;;11.54;100.00
50380;BME280;37474;59.468;18.040;2022-10-16T02:52:55;100371.09;;;11.37;100.00
50380;BME280;37474;59.468;18.040;2022-10-16T02:55:23;100380.13;;;11.46;100.00
50380;BME280;37474;59.468;18.040;2022-10-16T02:57:53;100351.34;;;11.21;100.00
50380;BME280;37474;59.468;18.040;2022-10-16T03:00:24;100367.22;;;11.45;100.00
50380;BME280;37474;59.468;18.040;2022-10-16T03:02:52;100366.50;;;11.28;100.00
50380;BME280;37474;59.468;18.040;2022-10-16T03:05:22;100361.31;;;11.28;100.00
50380;BME280;37474;59.468;18.040;2022-10-16T03:07:52;100347.41;;;11.29;100.00
50380;BME280;37474;59.468;18.040;2022-10-16T03:10:20;100337.72;;;11.03;100.00
50380;BME280;37474;59.468;18.040;2022-10-16T03:12:50;100368.69;;;11.20;100.00
50380;BME280;37474;59.468;18.040;2022-10-16T03:15:20;100363.88;;;11.14;100.00
50380;BME280;37474;59.468;18.040;2022-10-16T03:17:49;100373.81;;;11.36;100.00
50380;BME280;37474;59.468;18.040;2022-10-16T03:20:19;100363.81;;;11.44;100.00
50380;BME280;37474;59.468;18.040;2022-10-16T03:22:48;100356.47;;;11.51;100.00
50380;BME280;37474;59.468;18.040;2022-10-16T03:25:16;100363.53;;;11.34;100.00
50380;BME280;37474;59.468;18.040;2022-10-16T03:27:46;100331.81;;;11.29;100.00
50380;BME280;37474;59.468;18.040;2022-10-16T03:30:14;100322.00;;;11.34;100.00
50380;BME280;37474;59.468;18.040;2022-10-16T03:32:43;100321.06;;;11.35;100.00
50380;BME280;37474;59.468;18.040;2022-10-16T03:35:14;100354.44;;;11.56;100.00
50380;BME280;37474;59.468;18.040;2022-10-16T03:37:44;100330.63;;;11.06;100.00
50380;BME280;37474;59.468;18.040;2022-10-16T03:40:12;100349.06;;;11.16;100.00
50380;BME280;37474;59.468;18.040;2022-10-16T03:42:42;100329.41;;;11.12;100.00
50380;BME280;37474;59.468;18.040;2022-10-16T03:45:12;100361.03;;;11.33;100.00
50380;BME280;37474;59.468;18.040;2022-10-16T03:47:40;100334.59;;;11.26;100.00
50380;BME280;37474;59.468;18.040;2022-10-16T03:50:10;100354.63;;;11.39;100.00
50380;BME280;37474;59.468;18.040;2022-10-16T03:52:42;100350.72;;;11.31;100.00
50380;BME280;37474;59.468;18.040;2022-10-16T03:55:09;100352.31;;;11.34;100.00
50380;BME280;37474;59.468;18.040;2022-10-16T03:57:39;100348.88;;;11.33;100.00
50380;BME280;37474;59.468;18.040;2022-10-16T04:00:11;100328.38;;;11.15;100.00
50380;BME280;37474;59.468;18.040;2022-10-16T04:02:39;100354.69;;;11.37;100.00
50380;BME280;37474;59.468;18.040;2022-10-16T04:05:09;100347.84;;;11.36;100.00
50380;BME280;37474;59.468;18.040;2022-10-16T04:07:39;100359.88;;;11.37;100.00
50380;BME280;37474;59.468;18.040;2022-10-16T04:10:09;100345.44;;;11.19;100.00
50380;BME280;37474;59.468;18.040;2022-10-16T04:12:39;100349.97;;;11.15;100.00
50380;BME280;37474;59.468;18.040;2022-10-16T04:15:09;100340.25;;;11.33;100.00
50380;BME280;37474;59.468;18.040;2022-10-16T04:17:37;100323.28;;;11.13;100.00
50380;BME280;37474;59.468;18.040;2022-10-16T04:20:07;100344.25;;;11.24;100.00
50380;BME280;37474;59.468;18.040;2022-10-16T04:22:37;100351.66;;;11.16;100.00
50380;BME280;37474;59.468;18.040;2022-10-16T04:25:05;100351.66;;;11.16;100.00
50380;BME280;37474;59.468;18.040;2022-10-16T04:27:37;100355.56;;;11.23;100.00
50380;BME280;37474;59.468;18.040;2022-10-16T04:30:10;100320.69;;;10.99;100.00
50380;BME280;37474;59.468;18.040;2022-10-16T04:32:40;100349.97;;;11.29;100.00
50380;BME280;37474;59.468;18.040;2022-10-16T04:35:10;100358.50;;;11.17;100.00
50380;BME280;37474;59.468;18.040;2022-10-16T04:37:40;100337.28;;;10.96;100.00
50380;BME280;37474;59.468;18.040;2022-10-16T04:40:09;100362.03;;;11.16;100.00
50380;BME280;37474;59.468;18.040;2022-10-16T04:42:40;100356.56;;;11.21;100.00
50380;BME280;37474;59.468;18.040;2022-10-16T04:45:11;100330.78;;;10.89;100.00
50380;BME280;37474;59.468;18.040;2022-10-16T04:47:42;100333.00;;;10.95;100.00
50380;BME280;37474;59.468;18.040;2022-10-16T04:50:15;100358.03;;;11.25;100.00
50380;BME280;37474;59.468;18.040;2022-10-16T04:52:45;100354.53;;;11.26;100.00
50380;BME280;37474;59.468;18.040;2022-10-16T04:55:13;100332.91;;;10.97;100.00
50380;BME280;37474;59.468;18.040;2022-10-16T04:57:42;100358.88;;;11.11;100.00
50380;BME280;37474;59.468;18.040;2022-10-16T05:00:12;100354.97;;;11.04;100.00
50380;BME280;37474;59.468;18.040;2022-10-16T05:02:40;100354.59;;;11.10;100.00
50380;BME280;37474;59.468;18.040;2022-10-16T05:05:10;100357.00;;;10.99;100.00
50380;BME280;37474;59.468;18.040;2022-10-16T05:07:40;100356.09;;;11.14;100.00
50380;BME280;37474;59.468;18.040;2022-10-16T05:10:08;100346.19;;;11.06;100.00
50380;BME280;37474;59.468;18.040;2022-10-16T05:12:36;100351.47;;;11.05;100.00
50380;BME280;37474;59.468;18.040;2022-10-16T05:15:08;100334.50;;;10.99;100.00
50380;BME280;37474;59.468;18.040;2022-10-16T05:17:38;100350.69;;;11.03;100.00
50380;BME280;37474;59.468;18.040;2022-10-16T05:20:12;100353.66;;;10.97;100.00
50380;BME280;37474;59.468;18.040;2022-10-16T05:22:42;100326.16;;;10.94;100.00
50380;BME280;37474;59.468;18.040;2022-10-16T05:25:10;100331.22;;;10.81;100.00
50380;BME280;37474;59.468;18.040;2022-10-16T05:27:40;100335.31;;;10.86;100.00
50380;BME280;37474;59.468;18.040;2022-10-16T05:30:10;100357.09;;;10.97;100.00
50380;BME280;37474;59.468;18.040;2022-10-16T05:32:38;100328.25;;;10.88;100.00
50380;BME280;37474;59.468;18.040;2022-10-16T05:35:08;100349.88;;;11.02;100.00
50380;BME280;37474;59.468;18.040;2022-10-16T05:37:38;100327.91;;;10.79;100.00
50380;BME280;37474;59.468;18.040;2022-10-16T05:40:08;100346.72;;;10.97;100.00
50380;BME280;37474;59.468;18.040;2022-10-16T05:42:36;100353.94;;;10.92;100.00
50380;BME280;37474;59.468;18.040;2022-10-16T05:45:10;100352.09;;;10.94;100.00
50380;BME280;37474;59.468;18.040;2022-10-16T05:47:40;100331.84;;;10.71;100.00
50380;BME280;37474;59.468;18.040;2022-10-16T05:50:10;100363.56;;;10.90;100.00
50380;BME280;37474;59.468;18.040;2022-10-16T05:52:46;100343.66;;;10.91;100.00
50380;BME280;37474;59.468;18.040;2022-10-16T05:55:18;100351.97;;;10.81;100.00
50380;BME280;37474;59.468;18.040;2022-10-16T05:57:46;100372.13;;;11.06;100.00
50380;BME280;37474;59.468;18.040;2022-10-16T06:00:15;100374.06;;;11.03;100.00
50380;BME280;37474;59.468;18.040;2022-10-16T06:02:48;100352.16;;;10.78;100.00
50380;BME280;37474;59.468;18.040;2022-10-16T06:05:15;100353.00;;;10.79;100.00
50380;BME280;37474;59.468;18.040;2022-10-16T06:07:43;100380.34;;;10.99;100.00
50380;BME280;37474;59.468;18.040;2022-10-16T06:10:15;100379.50;;;10.98;100.00
50380;BME280;37474;59.468;18.040;2022-10-16T06:12:43;100376.75;;;11.01;100.00
50380;BME280;37474;59.468;18.040;2022-10-16T06:15:11;100384.25;;;11.06;100.00
50380;BME280;37474;59.468;18.040;2022-10-16T06:17:42;100394.06;;;11.01;100.00
50380;BME280;37474;59.468;18.040;2022-10-16T06:20:10;100395.16;;;10.97;100.00
50380;BME280;37474;59.468;18.040;2022-10-16T06:22:38;100376.06;;;10.98;100.00
50380;BME280;37474;59.468;18.040;2022-10-16T06:25:08;100402.06;;;11.12;100.00
50380;BME280;37474;59.468;18.040;2022-10-16T06:27:36;100397.34;;;11.19;100.00
50380;BME280;37474;59.468;18.040;2022-10-16T06:30:04;100408.38;;;11.36;100.00
50380;BME280;37474;59.468;18.040;2022-10-16T06:32:37;100405.59;;;11.25;100.00
50380;BME280;37474;59.468;18.040;2022-10-16T06:35:07;100413.09;;;11.30;100.00
50380;BME280;37474;59.468;18.040;2022-10-16T06:37:34;100403.00;;;11.25;100.00
50380;BME280;37474;59.468;18.040;2022-10-16T06:40:07;100417.75;;;11.39;100.00
50380;BME280;37474;59.468;18.040;2022-10-16T06:42:35;100363.31;;;11.09;100.00
50380;BME280;37474;59.468;18.040;2022-10-16T06:45:03;100416.44;;;11.32;100.00
50380;BME280;37474;59.468;18.040;2022-10-16T06:47:35;100415.41;;;11.49;100.00
50380;BME280;37474;59.468;18.040;2022-10-16T06:50:04;100413.38;;;11.54;100.00
50380;BME280;37474;59.468;18.040;2022-10-16T06:52:34;100417.00;;;11.37;100.00
50380;BME280;37474;59.468;18.040;2022-10-16T06:55:07;100421.94;;;11.56;100.00
50380;BME280;37474;59.468;18.040;2022-10-16T06:57:34;100419.91;;;11.61;100.00
50380;BME280;37474;59.468;18.040;2022-10-16T07:00:03;100416.66;;;11.72;100.00
50380;BME280;37474;59.468;18.040;2022-10-16T07:02:33;100412.56;;;11.82;100.00
50380;BME280;37474;59.468;18.040;2022-10-16T07:05:01;100420.63;;;11.77;100.00
50380;BME280;37474;59.468;18.040;2022-10-16T07:07:29;100424.34;;;11.87;100.00
50380;BME280;37474;59.468;18.040;2022-10-16T07:10:00;100425.63;;;11.80;100.00
50380;BME280;37474;59.468;18.040;2022-10-16T07:12:28;100415.53;;;11.90;100.00
50380;BME280;37474;59.468;18.040;2022-10-16T07:14:56;100423.97;;;11.79;100.00
50380;BME280;37474;59.468;18.040;2022-10-16T07:17:24;100401.34;;;11.67;100.00
50380;BME280;37474;59.468;18.040;2022-10-16T07:19:52;100423.84;;;11.81;100.00
50380;BME280;37474;59.468;18.040;2022-10-16T07:22:21;100429.25;;;11.92;100.00
50380;BME280;37474;59.468;18.040;2022-10-16T07:24:52;100428.03;;;11.69;100.00
50380;BME280;37474;59.468;18.040;2022-10-16T07:27:21;100427.22;;;11.69;100.00
50380;BME280;37474;59.468;18.040;2022-10-16T07:29:54;100427.78;;;11.88;100.00
50380;BME280;37474;59.468;18.040;2022-10-16T07:32:22;100405.59;;;11.68;100.00
50380;BME280;37474;59.468;18.040;2022-10-16T07:34:52;100430.38;;;11.88;100.00
50380;BME280;37474;59.468;18.040;2022-10-16T07:37:25;100435.50;;;11.89;100.00
50380;BME280;37474;59.468;18.040;2022-10-16T07:39:54;100435.50;;;11.89;100.00
50380;BME280;37474;59.468;18.040;2022-10-16T07:42:23;100440.66;;;12.04;100.00
50380;BME280;37474;59.468;18.040;2022-10-16T07:44:51;100430.19;;;12.05;100.00
50380;BME280;37474;59.468;18.040;2022-10-16T07:47:18;100438.97;;;12.17;100.00
50380;BME280;37474;59.468;18.040;2022-10-16T07:49:47;100409.63;;;12.15;100.00
50380;BME280;37474;59.468;18.040;2022-10-16T07:52:15;100432.56;;;12.23;100.00
50380;BME280;37474;59.468;18.040;2022-10-16T07:54:42;100419.47;;;12.24;100.00
50380;BME280;37474;59.468;18.040;2022-10-16T07:57:13;100430.56;;;12.40;100.00
50380;BME280;37474;59.468;18.040;2022-10-16T07:59:48;100431.28;;;12.42;100.00
50380;BME280;37474;59.468;18.040;2022-10-16T08:02:16;100410.72;;;12.25;100.00
50380;BME280;37474;59.468;18.040;2022-10-16T08:04:46;100420.94;;;12.28;100.00
50380;BME280;37474;59.468;18.040;2022-10-16T08:07:16;100429.13;;;12.22;100.00
50380;BME280;37474;59.468;18.040;2022-10-16T08:09:48;100406.03;;;12.03;100.00
50380;BME280;37474;59.468;18.040;2022-10-16T08:12:19;100445.28;;;12.13;100.00
50380;BME280;37474;59.468;18.040;2022-10-16T08:14:48;100444.09;;;12.04;100.00
50380;BME280;37474;59.468;18.040;2022-10-16T08:17:16;100420.22;;;12.12;100.00
50380;BME280;37474;59.468;18.040;2022-10-16T08:19:45;100444.19;;;12.17;100.00
50380;BME280;37474;59.468;18.040;2022-10-16T08:22:14;100449.75;;;12.11;100.00
50380;BME280;37474;59.468;18.040;2022-10-16T08:24:42;100451.88;;;12.19;100.00
50380;BME280;37474;59.468;18.040;2022-10-16T08:27:10;100454.28;;;12.22;100.00
50380;BME280;37474;59.468;18.040;2022-10-16T08:29:39;100453.09;;;12.13;100.00
50380;BME280;37474;59.468;18.040;2022-10-16T08:32:09;100448.53;;;12.17;100.00
50380;BME280;37474;59.468;18.040;2022-10-16T08:34:36;100446.94;;;12.28;100.00
50380;BME280;37474;59.468;18.040;2022-10-16T08:37:06;100452.56;;;12.35;100.00
50380;BME280;37474;59.468;18.040;2022-10-16T08:39:37;100449.69;;;12.39;100.00
50380;BME280;37474;59.468;18.040;2022-10-16T08:42:19;100455.63;;;12.41;100.00
50380;BME280;37474;59.468;18.040;2022-10-16T08:47:59;100456.28;;;12.31;100.00
50380;BME280;37474;59.468;18.040;2022-10-16T08:50:31;100459.16;;;12.26;100.00
50380;BME280;37474;59.468;18.040;2022-10-16T08:53:04;100415.81;;;12.00;100.00
50380;BME280;37474;59.468;18.040;2022-10-16T08:55:38;100454.53;;;12.31;100.00
50380;BME280;37474;59.468;18.040;2022-10-16T08:58:12;100427.22;;;11.97;100.00
50380;BME280;37474;59.468;18.040;2022-10-16T09:00:41;100449.59;;;12.41;100.00
50380;BME280;37474;59.468;18.040;2022-10-16T09:03:17;100459.19;;;12.53;100.00
50380;BME280;37474;59.468;18.040;2022-10-16T09:06:00;100466.56;;;12.47;100.00
50380;BME280;37474;59.468;18.040;2022-10-16T09:08:43;100460.78;;;12.56;100.00
50380;BME280;37474;59.468;18.040;2022-10-16T09:11:20;100461.78;;;12.53;100.00
50380;BME280;37474;59.468;18.040;2022-10-16T09:13:59;100462.88;;;12.63;100.00
50380;BME280;37474;59.468;18.040;2022-10-16T09:16:34;100463.13;;;12.73;100.00
50380;BME280;37474;59.468;18.040;2022-10-16T09:19:13;100467.00;;;12.53;100.00
50380;BME280;37474;59.468;18.040;2022-10-16T09:21:45;100479.00;;;12.56;100.00
50380;BME280;37474;59.468;18.040;2022-10-16T09:24:29;100447.38;;;12.62;100.00
50380;BME280;37474;59.468;18.040;2022-10-16T09:26:57;100462.72;;;12.79;100.00
50380;BME280;37474;59.468;18.040;2022-10-16T09:29:25;100416.13;;;12.49;100.00
50380;BME280;37474;59.468;18.040;2022-10-16T09:31:55;100459.53;;;12.88;100.00
50380;BME280;37474;59.468;18.040;2022-10-16T09:34:32;100416.84;;;12.78;100.00
50380;BME280;37474;59.468;18.040;2022-10-16T09:37:04;100453.59;;;12.86;100.00
50380;BME280;37474;59.468;18.040;2022-10-16T09:39:44;100452.16;;;12.95;100.00
50380;BME280;37474;59.468;18.040;2022-10-16T09:42:14;100444.66;;;12.90;100.00
50380;BME280;37474;59.468;18.040;2022-10-16T09:44:47;100459.72;;;12.85;100.00
50380;BME280;37474;59.468;18.040;2022-10-16T09:47:18;100438.53;;;12.64;100.00
50380;BME280;37474;59.468;18.040;2022-10-16T09:49:53;100457.25;;;12.97;100.00
50380;BME280;37474;59.468;18.040;2022-10-16T09:52:22;100450.75;;;13.16;100.00
50380;BME280;37474;59.468;18.040;2022-10-16T09:54:52;100426.63;;;12.87;100.00
50380;BME280;37474;59.468;18.040;2022-10-16T09:57:21;100453.81;;;12.96;100.00
50380;BME280;37474;59.468;18.040;2022-10-16T09:59:51;100436.38;;;13.11;100.00
50380;BME280;37474;59.468;18.040;2022-10-16T10:02:29;100401.66;;;12.85;99.96
50380;BME280;37474;59.468;18.040;2022-10-16T10:04:58;100438.00;;;12.99;100.00
50380;BME280;37474;59.468;18.040;2022-10-16T10:07:31;100448.44;;;13.12;100.00
50380;BME280;37474;59.468;18.040;2022-10-16T10:10:01;100453.19;;;12.92;100.00
50380;BME280;37474;59.468;18.040;2022-10-16T10:12:31;100440.16;;;12.92;98.83
50380;BME280;37474;59.468;18.040;2022-10-16T10:15:04;100452.59;;;13.14;99.17
50380;BME280;37474;59.468;18.040;2022-10-16T10:17:45;100456.66;;;13.06;94.53
50380;BME280;37474;59.468;18.040;2022-10-16T10:20:23;100452.72;;;13.13;95.33
50380;BME280;37474;59.468;18.040;2022-10-16T10:22:54;100457.50;;;13.19;94.09
50380;BME280;37474;59.468;18.040;2022-10-16T10:28:32;100465.72;;;13.00;90.66
50380;BME280;37474;59.468;18.040;2022-10-16T10:31:12;100467.06;;;13.06;93.51
50380;BME280;37474;59.468;18.040;2022-10-16T10:33:47;100459.66;;;13.00;92.63
50380;BME280;37474;59.468;18.040;2022-10-16T10:36:28;100466.97;;;13.20;92.48
50380;BME280;37474;59.468;18.040;2022-10-16T10:39:00;100463.38;;;13.23;91.69
50380;BME280;37474;59.468;18.040;2022-10-16T10:41:44;100447.19;;;13.05;91.23
50380;BME280;37474;59.468;18.040;2022-10-16T10:44:30;100426.47;;;12.63;91.31
50380;BME280;37474;59.468;18.040;2022-10-16T10:47:06;100417.56;;;12.40;94.39
50380;BME280;37474;59.468;18.040;2022-10-16T10:49:48;100461.94;;;12.64;96.38
50380;BME280;37474;59.468;18.040;2022-10-16T10:52:36;100437.09;;;12.60;94.58
50380;BME280;37474;59.468;18.040;2022-10-16T10:55:13;100461.69;;;12.82;96.74
50380;BME280;37474;59.468;18.040;2022-10-16T10:57:56;100453.03;;;12.81;94.05
50380;BME280;37474;59.468;18.040;2022-10-16T11:00:41;100450.50;;;13.07;92.88
50380;BME280;37474;59.468;18.040;2022-10-16T11:03:25;100440.66;;;13.25;92.30
50380;BME280;37474;59.468;18.040;2022-10-16T11:06:00;100412.38;;;13.33;91.29
50380;BME280;37474;59.468;18.040;2022-10-16T11:08:35;100440.78;;;13.61;89.63
50380;BME280;37474;59.468;18.040;2022-10-16T11:11:10;100415.16;;;13.55;88.44
50380;BME280;37474;59.468;18.040;2022-10-16T11:13:45;100444.53;;;13.57;90.23
50380;BME280;37474;59.468;18.040;2022-10-16T11:16:22;100416.41;;;13.24;91.58
50380;BME280;37474;59.468;18.040;2022-10-16T11:18:58;100430.78;;;13.42;89.91
50380;BME280;37474;59.468;18.040;2022-10-16T11:21:30;100410.16;;;13.39;90.78
50380;BME280;37474;59.468;18.040;2022-10-16T11:24:09;100445.97;;;13.74;89.16
50380;BME280;37474;59.468;18.040;2022-10-16T11:26:43;100443.56;;;13.71;88.38
50380;BME280;37474;59.468;18.040;2022-10-16T11:29:20;100429.94;;;13.67;84.78
50380;BME280;37474;59.468;18.040;2022-10-16T11:31:53;100433.47;;;13.54;86.34
50380;BME280;37474;59.468;18.040;2022-10-16T11:34:28;100424.63;;;13.69;87.25
50380;BME280;37474;59.468;18.040;2022-10-16T11:37:04;100430.56;;;13.84;85.01
50380;BME280;37474;59.468;18.040;2022-10-16T11:39:38;100418.31;;;13.97;84.13
50380;BME280;37474;59.468;18.040;2022-10-16T11:42:10;100419.44;;;14.06;84.41
50380;BME280;37474;59.468;18.040;2022-10-16T11:44:46;100411.38;;;13.85;82.77
50380;BME280;37474;59.468;18.040;2022-10-16T11:47:31;100412.72;;;13.90;83.89
50380;BME280;37474;59.468;18.040;2022-10-16T11:50:25;100389.56;;;13.86;81.82
50380;BME280;37474;59.468;18.040;2022-10-16T11:52:58;100384.66;;;13.94;84.78
50380;BME280;37474;59.468;18.040;2022-10-16T11:55:33;100409.84;;;14.06;81.55
50380;BME280;37474;59.468;18.040;2022-10-16T11:58:07;100404.63;;;14.06;81.80
50380;BME280;37474;59.468;18.040;2022-10-16T12:00:40;100395.63;;;14.23;83.15
50380;BME280;37474;59.468;18.040;2022-10-16T12:03:18;100372.34;;;13.96;80.72
50380;BME280;37474;59.468;18.040;2022-10-16T12:06:25;100397.84;;;14.04;81.78
50380;BME280;37474;59.468;18.040;2022-10-16T12:08:47;100386.97;;;13.86;82.25
50380;BME280;37474;59.468;18.040;2022-10-16T12:11:31;100382.19;;;13.80;81.40
50380;BME280;37474;59.468;18.040;2022-10-16T12:14:22;100375.59;;;13.87;84.21
50380;BME280;37474;59.468;18.040;2022-10-16T12:17:27;100375.19;;;14.17;81.75
50380;BME280;37474;59.468;18.040;2022-10-16T12:20:19;100368.97;;;14.07;81.52
50380;BME280;37474;59.468;18.040;2022-10-16T12:22:49;100335.19;;;13.81;80.85
50380;BME280;37474;59.468;18.040;2022-10-16T12:25:19;100361.81;;;13.97;82.27
50380;BME280;37474;59.468;18.040;2022-10-16T12:27:56;100333.13;;;13.73;82.57
50380;BME280;37474;59.468;18.040;2022-10-16T12:30:26;100351.50;;;13.96;83.15
50380;BME280;37474;59.468;18.040;2022-10-16T12:33:02;100356.03;;;13.81;82.81
50380;BME280;37474;59.468;18.040;2022-10-16T12:35:35;100361.97;;;13.83;83.46
50380;BME280;37474;59.468;18.040;2022-10-16T12:38:18;100356.38;;;13.64;84.26
50380;BME280;37474;59.468;18.040;2022-10-16T12:40:55;100358.38;;;13.60;86.02
50380;BME280;37474;59.468;18.040;2022-10-16T12:43:35;100358.63;;;13.81;84.24
50380;BME280;37474;59.468;18.040;2022-10-16T12:46:23;100340.13;;;13.97;83.53
50380;BME280;37474;59.468;18.040;2022-10-16T12:48:53;100345.22;;;13.98;82.95
50380;BME280;37474;59.468;18.040;2022-10-16T12:51:36;100344.25;;;13.76;85.41
50380;BME280;37474;59.468;18.040;2022-10-16T12:54:13;100330.84;;;13.69;86.07
50380;BME280;37474;59.468;18.040;2022-10-16T12:56:50;100321.56;;;13.65;87.53
50380;BME280;37474;59.468;18.040;2022-10-16T12:59:31;100317.94;;;13.55;87.33
50380;BME280;37474;59.468;18.040;2022-10-16T13:02:18;100307.91;;;13.74;87.92
50380;BME280;37474;59.468;18.040;2022-10-16T13:05:02;100312.41;;;13.72;87.83